Time;durP1;ratioP1;P1;durP2;ratioP2;P2;SDS_P1;SDS_P2;PMS_P1;PMS_P2;Temp;Humidity;BMP_temperature;BMP_pressure;BME280_temperature;BME280_humidity;BME280_pressure;Samples;Min_cycle;Max_cycle;Signal;HPM_P1;HPM_P2
2023/06/15 00:01:49;;;;;;;5.37;3.20;;;13.00;94.40;;;;;;5077965;28;20418;-74
2023/06/15 00:04:15;;;;;;;5.57;2.80;;;13.00;94.50;;;;;;5079194;28;20422;-74
2023/06/15 00:06:40;;;;;;;4.83;2.60;;;13.10;94.70;;;;;;5070187;28;20420;-74
2023/06/15 00:09:06;;;;;;;5.30;2.40;;;12.90;94.70;;;;;;5081136;28;20195;-74
2023/06/15 00:11:32;;;;;;;4.67;2.53;;;12.90;94.60;;;;;;5079326;28;20223;-74
2023/06/15 00:13:57;;;;;;;5.47;3.20;;;13.00;94.60;;;;;;5080700;28;20197;-74
2023/06/15 00:16:23;;;;;;;4.40;2.30;;;13.00;94.40;;;;;;5074020;28;20569;-74
2023/06/15 00:18:54;;;;;;;4.90;2.03;;;13.10;94.10;;;;;;5074175;28;20645;-74
2023/06/15 00:21:23;;;;;;;6.37;2.67;;;13.10;93.90;;;;;;5073977;28;20427;-74
2023/06/15 00:23:49;;;;;;;4.57;3.17;;;13.10;94.40;;;;;;5073466;28;20442;-74
2023/06/15 00:26:15;;;;;;;4.40;2.63;;;13.00;94.40;;;;;;5087467;28;20872;-74
2023/06/15 00:28:40;;;;;;;6.30;3.00;;;13.10;94.70;;;;;;5073585;28;20185;-74
2023/06/15 00:31:06;;;;;;;5.60;3.10;;;13.10;94.60;;;;;;5073801;28;20256;-74
2023/06/15 00:33:32;;;;;;;6.83;3.00;;;13.00;94.50;;;;;;5071227;28;20177;-74
2023/06/15 00:36:00;;;;;;;3.83;2.33;;;13.10;94.80;;;;;;5072620;28;20189;-74
2023/06/15 00:38:26;;;;;;;7.80;2.70;;;13.00;94.90;;;;;;5068671;28;20191;-74
2023/06/15 00:40:52;;;;;;;5.00;2.90;;;13.00;94.90;;;;;;5069633;28;20908;-73
2023/06/15 00:43:20;;;;;;;3.90;2.30;;;12.90;95.20;;;;;;5073007;28;20642;-74
2023/06/15 00:45:46;;;;;;;4.57;2.57;;;12.90;95.40;;;;;;5073407;28;20540;-74
2023/06/15 00:48:13;;;;;;;6.97;3.10;;;12.90;95.00;;;;;;5066505;28;20428;-74
2023/06/15 00:50:39;;;;;;;3.70;2.27;;;12.70;95.00;;;;;;5073861;28;20473;-74
2023/06/15 00:53:06;;;;;;;5.13;2.57;;;13.00;95.30;;;;;;5072788;28;20947;-74
2023/06/15 00:55:34;;;;;;;3.57;2.87;;;12.90;95.40;;;;;;5069106;28;20945;-74
2023/06/15 00:58:02;;;;;;;5.10;2.77;;;12.90;95.30;;;;;;5068819;28;20510;-74
2023/06/15 01:00:32;;;;;;;5.73;2.80;;;12.90;95.80;;;;;;5073724;28;20419;-74
2023/06/15 01:02:59;;;;;;;9.70;2.90;;;12.90;95.70;;;;;;5064597;28;20955;-74
2023/06/15 01:05:25;;;;;;;4.57;2.77;;;12.80;95.80;;;;;;5072964;28;20784;-74
2023/06/15 01:07:52;;;;;;;6.23;3.60;;;12.80;95.70;;;;;;5072954;28;20506;-74
2023/06/15 01:10:23;;;;;;;4.70;2.70;;;12.80;95.80;;;;;;5080049;28;20490;-73
2023/06/15 01:12:54;;;;;;;3.60;2.20;;;12.70;95.90;;;;;;5077928;28;20418;-74
2023/06/15 01:15:21;;;;;;;4.80;2.33;;;12.70;96.40;;;;;;5069491;28;20470;-73
2023/06/15 01:17:51;;;;;;;7.00;2.80;;;12.70;96.60;;;;;;5073907;28;20423;-74
2023/06/15 01:20:26;;;;;;;4.47;2.60;;;12.70;96.50;;;;;;5072099;28;20419;-74
2023/06/15 01:23:01;;;;;;;4.23;2.60;;;12.60;96.60;;;;;;5069263;28;20457;-74
2023/06/15 01:25:29;;;;;;;6.13;2.80;;;12.70;96.60;;;;;;5076830;28;20499;-74
2023/06/15 01:28:01;;;;;;;5.00;2.57;;;12.60;96.70;;;;;;5075396;28;20426;-74
2023/06/15 01:30:33;;;;;;;4.60;2.87;;;12.60;96.90;;;;;;5084792;28;20943;-74
2023/06/15 01:32:59;;;;;;;5.27;2.33;;;12.60;97.00;;;;;;5073770;28;20423;-74
2023/06/15 01:35:24;;;;;;;5.63;2.77;;;12.50;97.10;;;;;;5085953;28;21112;-74
2023/06/15 01:37:50;;;;;;;11.77;2.77;;;12.50;97.20;;;;;;5072670;28;20431;-74
2023/06/15 01:40:16;;;;;;;11.10;3.63;;;12.40;97.50;;;;;;5073242;28;20257;-74
2023/06/15 01:42:43;;;;;;;5.80;3.20;;;12.40;97.50;;;;;;5084244;28;20181;-74
2023/06/15 01:45:10;;;;;;;3.70;2.30;;;12.40;97.60;;;;;;5073384;28;20450;-74
2023/06/15 01:47:37;;;;;;;4.10;2.40;;;12.40;97.50;;;;;;5084045;28;20434;-74
2023/06/15 01:50:03;;;;;;;7.20;3.60;;;12.40;97.60;;;;;;5073818;28;20423;-74
2023/06/15 01:52:28;;;;;;;6.60;3.23;;;12.30;97.60;;;;;;5091982;28;20426;-73
2023/06/15 01:54:54;;;;;;;3.00;2.50;;;12.30;97.80;;;;;;5076492;28;20517;-74
2023/06/15 01:57:21;;;;;;;5.80;3.50;;;12.30;97.80;;;;;;5072175;28;20188;-73
2023/06/15 01:59:47;;;;;;;5.50;2.80;;;12.30;98.00;;;;;;5085475;28;20185;-73
2023/06/15 02:02:12;;;;;;;6.50;3.60;;;12.30;98.30;;;;;;5079806;28;20722;-74
2023/06/15 02:04:38;;;;;;;6.00;3.43;;;12.20;98.10;;;;;;5073434;28;20652;-74
2023/06/15 02:07:04;;;;;;;7.53;3.40;;;12.20;98.40;;;;;;5080840;28;20184;-73
2023/06/15 02:09:30;;;;;;;6.90;3.23;;;12.20;98.50;;;;;;5076730;28;20243;-74
2023/06/15 02:11:57;;;;;;;6.00;2.80;;;12.10;98.50;;;;;;5066665;28;20182;-74
2023/06/15 02:14:23;;;;;;;4.33;2.30;;;12.10;98.60;;;;;;5071903;28;20621;-74
2023/06/15 02:16:49;;;;;;;4.70;2.83;;;12.10;98.80;;;;;;5076929;28;20510;-74
2023/06/15 02:19:20;;;;;;;3.57;2.50;;;12.00;98.80;;;;;;5070649;28;20640;-74
2023/06/15 02:21:49;;;;;;;3.47;2.43;;;12.00;99.10;;;;;;5065937;28;20432;-74
2023/06/15 02:24:16;;;;;;;4.77;2.70;;;11.90;98.90;;;;;;5073376;28;20469;-74
2023/06/15 02:26:42;;;;;;;4.70;2.87;;;12.00;99.20;;;;;;5083013;28;20502;-74
2023/06/15 02:29:08;;;;;;;8.00;2.73;;;11.90;99.30;;;;;;5067573;28;20439;-74
2023/06/15 02:31:33;;;;;;;5.67;2.70;;;11.90;99.50;;;;;;5075588;28;20411;-74
2023/06/15 02:33:59;;;;;;;4.83;2.90;;;11.90;99.50;;;;;;5068420;28;20205;-74
2023/06/15 02:36:26;;;;;;;5.50;3.17;;;11.90;99.20;;;;;;5070842;28;20679;-74
2023/06/15 02:38:52;;;;;;;4.93;3.33;;;12.00;99.40;;;;;;5069325;28;21319;-74
2023/06/15 02:41:17;;;;;;;4.63;2.63;;;12.00;99.00;;;;;;5070793;28;20419;-74
2023/06/15 02:43:43;;;;;;;5.00;2.80;;;12.00;99.10;;;;;;5075507;28;20256;-74
2023/06/15 02:46:08;;;;;;;3.60;2.47;;;12.00;99.10;;;;;;5082186;28;20645;-74
2023/06/15 02:48:34;;;;;;;9.67;3.40;;;12.00;99.10;;;;;;5088794;28;20180;-74
2023/06/15 02:51:00;;;;;;;4.10;2.33;;;12.00;99.20;;;;;;5080568;28;20616;-74
2023/06/15 02:53:26;;;;;;;6.77;2.90;;;12.00;99.10;;;;;;5088197;28;20185;-74
2023/06/15 02:55:54;;;;;;;7.50;2.87;;;12.00;99.20;;;;;;5067988;28;20971;-74
2023/06/15 02:58:20;;;;;;;5.00;2.90;;;12.10;99.40;;;;;;5065079;28;20177;-74
2023/06/15 03:00:50;;;;;;;15.30;2.60;;;12.00;99.70;;;;;;5070668;28;20529;-74
2023/06/15 03:03:27;;;;;;;6.27;2.80;;;12.00;99.60;;;;;;5080538;28;20180;-74
2023/06/15 03:05:54;;;;;;;3.13;2.30;;;12.00;99.90;;;;;;5073155;28;20411;-73
2023/06/15 03:08:20;;;;;;;8.10;3.67;;;12.00;99.80;;;;;;5070358;28;20556;-74
2023/06/15 03:10:46;;;;;;;3.87;2.37;;;12.10;99.30;;;;;;5067082;28;20934;-74
2023/06/15 03:13:12;;;;;;;3.60;2.40;;;12.10;99.60;;;;;;5070971;28;20427;-73
2023/06/15 03:15:38;;;;;;;6.63;3.17;;;12.10;99.90;;;;;;5070452;28;20250;-73
2023/06/15 03:18:04;;;;;;;8.50;2.93;;;12.20;99.90;;;;;;5070590;28;20181;-74
2023/06/15 03:20:32;;;;;;;5.60;2.93;;;12.10;99.80;;;;;;5082412;28;20172;-74
2023/06/15 03:22:59;;;;;;;7.87;2.30;;;12.10;99.80;;;;;;5071609;28;20419;-74
2023/06/15 03:25:25;;;;;;;7.77;3.10;;;12.30;99.90;;;;;;5071017;28;20506;-74
2023/06/15 03:27:53;;;;;;;3.73;2.53;;;12.10;99.90;;;;;;5070502;28;20502;-74
2023/06/15 03:30:20;;;;;;;5.40;3.00;;;12.20;99.90;;;;;;5070293;28;20200;-73
2023/06/15 03:32:47;;;;;;;3.17;2.27;;;12.20;99.80;;;;;;5069862;28;20469;-74
2023/06/15 03:35:14;;;;;;;8.20;3.70;;;12.30;99.80;;;;;;5065776;28;20469;-74
2023/06/15 03:37:39;;;;;;;5.47;3.40;;;12.40;99.90;;;;;;5067719;28;20784;-73
2023/06/15 03:40:06;;;;;;;6.10;3.50;;;12.30;99.90;;;;;;5061797;28;20436;-74
2023/06/15 03:42:32;;;;;;;5.00;2.50;;;12.40;99.90;;;;;;5071826;28;20173;-74
2023/06/15 03:44:58;;;;;;;5.00;2.73;;;12.50;99.90;;;;;;5070548;28;20427;-73
2023/06/15 03:47:24;;;;;;;4.27;2.60;;;12.90;99.90;;;;;;5080102;28;20437;-73
2023/06/15 03:49:50;;;;;;;4.77;2.23;;;12.50;99.80;;;;;;5073010;28;20184;-73
2023/06/15 03:52:15;;;;;;;6.67;3.20;;;12.50;99.90;;;;;;5070272;28;20418;-74
2023/06/15 03:54:41;;;;;;;4.70;2.10;;;12.50;99.90;;;;;;5068034;28;20233;-74
2023/06/15 03:57:07;;;;;;;8.10;3.10;;;12.50;99.90;;;;;;5080011;28;20176;-74
2023/06/15 03:59:32;;;;;;;5.03;2.83;;;12.80;99.90;;;;;;5068467;28;20252;-74
2023/06/15 04:01:58;;;;;;;6.00;2.80;;;12.60;99.90;;;;;;5080031;28;20177;-74
2023/06/15 04:04:24;;;;;;;7.30;2.77;;;12.60;99.90;;;;;;5069452;28;20177;-74
2023/06/15 04:06:52;;;;;;;3.87;2.67;;;12.50;99.90;;;;;;5084954;28;20184;-74
2023/06/15 04:09:19;;;;;;;4.50;2.60;;;12.60;99.90;;;;;;5072989;28;20218;-74
2023/06/15 04:11:44;;;;;;;7.53;3.33;;;12.50;99.90;;;;;;5074066;28;20796;-74
2023/06/15 04:14:11;;;;;;;4.53;2.60;;;12.40;99.90;;;;;;5073600;28;21026;-74
2023/06/15 04:16:37;;;;;;;4.30;2.33;;;12.30;99.90;;;;;;5080267;28;20196;-74
2023/06/15 04:19:03;;;;;;;5.60;2.67;;;12.30;99.90;;;;;;5093029;28;20435;-74
2023/06/15 04:21:28;;;;;;;7.83;2.40;;;12.30;99.90;;;;;;5068840;28;20264;-74
2023/06/15 04:23:55;;;;;;;5.40;3.00;;;12.30;99.90;;;;;;5073414;28;20629;-74
2023/06/15 04:26:21;;;;;;;4.63;3.03;;;12.30;99.90;;;;;;5080081;28;20677;-73
2023/06/15 04:28:49;;;;;;;5.40;3.10;;;12.30;99.90;;;;;;5080691;28;20429;-74
2023/06/15 04:31:21;;;;;;;7.00;2.87;;;12.30;99.90;;;;;;5077837;28;20184;-74
2023/06/15 04:33:47;;;;;;;5.50;2.60;;;12.50;99.90;;;;;;5073338;28;20427;-74
2023/06/15 04:36:13;;;;;;;8.13;2.80;;;12.30;99.90;;;;;;5074111;28;20506;-73
2023/06/15 04:38:49;;;;;;;4.80;2.70;;;12.40;99.90;;;;;;5072659;28;20184;-74
2023/06/15 04:41:22;;;;;;;6.87;3.00;;;12.20;99.90;;;;;;5068785;28;20447;-74
2023/06/15 04:43:48;;;;;;;10.20;3.20;;;12.30;99.90;;;;;;5069977;28;20426;-74
2023/06/15 04:46:17;;;;;;;7.80;3.30;;;12.30;99.90;;;;;;5069018;28;20912;-74
2023/06/15 04:48:47;;;;;;;3.63;2.20;;;12.30;99.90;;;;;;5071347;28;20424;-74
2023/06/15 04:51:13;;;;;;;8.33;3.10;;;12.30;99.90;;;;;;5070568;28;20498;-73
2023/06/15 04:53:42;;;;;;;5.03;3.07;;;12.40;99.90;;;;;;5070978;28;20485;-73
2023/06/15 04:56:08;;;;;;;5.63;3.10;;;12.40;99.90;;;;;;5069529;28;20503;-74
2023/06/15 04:58:33;;;;;;;5.53;2.60;;;12.50;99.90;;;;;;5070717;28;20511;-74
2023/06/15 05:00:59;;;;;;;5.00;2.97;;;12.40;99.90;;;;;;5073552;28;20502;-73
2023/06/15 05:03:25;;;;;;;4.40;2.60;;;12.40;99.90;;;;;;5077320;28;20788;-73
2023/06/15 05:05:50;;;;;;;5.10;2.57;;;12.40;99.90;;;;;;5066661;28;20174;-73
2023/06/15 05:08:16;;;;;;;6.37;3.30;;;12.50;99.90;;;;;;5072616;28;20204;-73
2023/06/15 05:10:41;;;;;;;5.97;3.20;;;12.50;99.90;;;;;;5069520;28;20287;-74
2023/06/15 05:13:07;;;;;;;5.30;3.40;;;12.50;99.90;;;;;;5072424;28;20181;-73
2023/06/15 05:15:34;;;;;;;9.37;3.67;;;12.60;99.90;;;;;;5079179;28;20204;-73
2023/06/15 05:18:00;;;;;;;5.30;3.10;;;12.70;99.90;;;;;;5072663;28;20211;-73
2023/06/15 05:20:25;;;;;;;5.60;2.93;;;12.90;99.90;;;;;;5054789;28;20767;-74
2023/06/15 05:22:51;;;;;;;6.33;3.37;;;13.00;99.90;;;;;;5081812;28;20181;-74
2023/06/15 05:25:18;;;;;;;5.60;3.13;;;13.10;99.90;;;;;;5072345;28;20197;-73
2023/06/15 05:27:43;;;;;;;6.37;3.30;;;13.30;99.90;;;;;;5073088;28;20185;-73
2023/06/15 05:30:11;;;;;;;7.83;2.90;;;13.30;99.90;;;;;;5083742;28;20416;-74
2023/06/15 05:32:38;;;;;;;3.57;2.40;;;13.50;99.90;;;;;;5088056;28;21025;-73
2023/06/15 05:35:08;;;;;;;4.63;3.23;;;13.60;99.90;;;;;;5084214;28;20457;-73
2023/06/15 05:37:34;;;;;;;6.93;3.00;;;13.80;99.90;;;;;;5073936;28;20452;-73
2023/06/15 05:40:00;;;;;;;5.23;3.10;;;13.80;99.90;;;;;;5084575;28;20410;-73
2023/06/15 05:42:26;;;;;;;4.77;2.20;;;13.90;99.70;;;;;;5092626;28;20410;-73
2023/06/15 05:44:52;;;;;;;16.87;3.13;;;14.00;99.50;;;;;;5080964;28;21033;-73
2023/06/15 05:47:17;;;;;;;8.53;3.30;;;14.10;99.50;;;;;;5077397;28;20200;-73
2023/06/15 05:49:43;;;;;;;6.23;2.43;;;14.20;99.90;;;;;;5081904;28;20177;-73
2023/06/15 05:52:09;;;;;;;6.73;3.20;;;14.30;99.50;;;;;;5070850;28;20181;-73
2023/06/15 05:54:34;;;;;;;4.97;2.60;;;14.40;99.30;;;;;;5070191;28;20204;-74
2023/06/15 05:57:01;;;;;;;7.07;3.40;;;14.50;99.90;;;;;;5085410;28;20596;-74
2023/06/15 05:59:27;;;;;;;5.03;2.50;;;14.60;98.60;;;;;;5065443;28;20173;-74
2023/06/15 06:01:53;;;;;;;5.13;2.77;;;14.80;98.90;;;;;;5088295;28;20422;-74
2023/06/15 06:04:19;;;;;;;5.57;2.80;;;14.90;96.50;;;;;;5078456;28;20428;-74
2023/06/15 06:06:44;;;;;;;8.73;2.70;;;15.10;96.70;;;;;;5078520;28;20422;-73
2023/06/15 06:09:10;;;;;;;3.87;2.10;;;15.40;96.70;;;;;;5079868;28;20677;-74
2023/06/15 06:11:36;;;;;;;5.03;2.60;;;15.70;95.90;;;;;;5077199;28;20205;-73
2023/06/15 06:14:01;;;;;;;6.17;2.37;;;15.90;93.90;;;;;;5091921;28;20238;-74
2023/06/15 06:16:27;;;;;;;5.77;2.50;;;16.30;92.50;;;;;;5076371;28;20188;-73
2023/06/15 06:18:53;;;;;;;5.00;2.77;;;16.50;92.20;;;;;;5080297;28;20185;-73
2023/06/15 06:21:18;;;;;;;7.33;1.97;;;16.60;92.00;;;;;;5076767;28;20488;-74
2023/06/15 06:23:44;;;;;;;4.13;2.27;;;16.80;91.30;;;;;;5083276;28;20180;-73
2023/06/15 06:26:10;;;;;;;4.23;1.90;;;16.90;90.80;;;;;;5068932;28;20182;-74
2023/06/15 06:28:36;;;;;;;6.57;2.27;;;17.10;90.50;;;;;;5078186;28;20177;-74
2023/06/15 06:31:02;;;;;;;5.70;2.77;;;17.20;90.70;;;;;;5072973;28;20407;-70
2023/06/15 06:33:27;;;;;;;4.27;2.33;;;17.40;90.10;;;;;;5070249;28;20209;-71
2023/06/15 06:35:53;;;;;;;4.30;2.25;;;17.50;89.60;;;;;;5066546;28;20437;-70
2023/06/15 06:38:18;;;;;;;3.10;2.27;;;17.60;90.10;;;;;;5065701;28;20181;-70
2023/06/15 06:40:44;;;;;;;3.33;1.83;;;17.70;89.80;;;;;;5070936;28;20883;-70
2023/06/15 06:43:10;;;;;;;7.33;2.57;;;17.70;89.90;;;;;;5070235;28;20188;-70
2023/06/15 06:45:35;;;;;;;5.57;2.60;;;17.70;89.30;;;;;;5070861;28;20208;-70
2023/06/15 06:48:01;;;;;;;7.17;1.97;;;17.70;89.80;;;;;;5071431;28;20185;-70
2023/06/15 06:50:27;;;;;;;6.30;3.23;;;17.70;89.30;;;;;;5080665;28;20656;-71
2023/06/15 06:52:52;;;;;;;9.50;3.10;;;17.70;89.80;;;;;;5081526;28;20173;-71
2023/06/15 06:55:18;;;;;;;4.73;2.47;;;17.70;90.90;;;;;;5070935;28;20254;-70
2023/06/15 06:57:45;;;;;;;10.57;2.03;;;17.80;89.90;;;;;;5071163;28;20719;-71
2023/06/15 07:00:11;;;;;;;4.03;2.10;;;17.90;87.70;;;;;;5069199;28;20454;-71
2023/06/15 07:02:37;;;;;;;4.33;2.10;;;17.90;87.10;;;;;;5070735;28;20184;-70
2023/06/15 07:05:02;;;;;;;5.07;2.50;;;18.10;88.10;;;;;;5062832;28;20469;-71
2023/06/15 07:07:28;;;;;;;4.90;2.67;;;18.40;86.50;;;;;;5079095;28;20238;-69
2023/06/15 07:09:54;;;;;;;4.43;2.37;;;18.40;85.50;;;;;;5070211;28;20228;-70
2023/06/15 07:12:20;;;;;;;3.50;1.97;;;18.50;86.60;;;;;;5070309;28;20196;-70
2023/06/15 07:14:46;;;;;;;10.07;2.50;;;18.60;85.80;;;;;;5069904;28;20201;-71
2023/06/15 07:17:12;;;;;;;4.40;2.50;;;18.80;85.20;;;;;;5070952;28;20457;-70
2023/06/15 07:19:37;;;;;;;5.90;2.40;;;18.90;84.80;;;;;;5069853;28;20292;-70
2023/06/15 07:22:03;;;;;;;9.43;2.47;;;19.00;84.80;;;;;;5069320;28;20615;-71
2023/06/15 07:24:29;;;;;;;2.97;2.03;;;19.40;83.60;;;;;;5069861;28;20181;-71
2023/06/15 07:26:56;;;;;;;6.80;2.40;;;19.60;82.80;;;;;;5070573;28;20181;-70
2023/06/15 07:29:21;;;;;;;3.73;2.20;;;19.90;84.40;;;;;;5070406;28;20185;-70
2023/06/15 07:31:47;;;;;;;7.57;2.87;;;20.30;84.30;;;;;;5070087;28;20427;-71
2023/06/15 07:34:12;;;;;;;3.90;2.30;;;20.70;80.60;;;;;;5070483;28;20546;-71
2023/06/15 07:36:38;;;;;;;3.40;2.07;;;20.90;79.20;;;;;;5070627;28;20189;-71
2023/06/15 07:39:04;;;;;;;3.80;2.10;;;;;;;;;;5073906;28;20176;-71
2023/06/15 07:41:30;;;;;;;5.53;2.87;;;21.60;77.60;;;;;;5070170;28;20180;-71
2023/06/15 07:43:56;;;;;;;16.93;2.70;;;22.50;75.30;;;;;;5070539;28;20414;-71
2023/06/15 07:46:21;;;;;;;3.53;2.40;;;23.50;72.50;;;;;;5061095;28;20175;-71
2023/06/15 07:48:47;;;;;;;4.73;2.70;;;23.60;70.90;;;;;;5070648;28;20185;-68
2023/06/15 07:51:12;;;;;;;7.30;2.95;;;24.70;68.50;;;;;;5080762;28;20632;-69
2023/06/15 07:53:39;;;;;;;2.70;1.80;;;24.80;69.60;;;;;;5084536;28;20182;-69
2023/06/15 07:56:04;;;;;;;6.95;2.00;;;25.20;66.00;;;;;;5067004;28;20200;-69
2023/06/15 07:58:30;;;;;;;8.10;2.47;;;25.90;63.40;;;;;;5067786;28;20188;-69
2023/06/15 08:00:56;;;;;;;4.65;2.75;;;26.30;61.20;;;;;;5070197;28;20188;-68
2023/06/15 08:03:22;;;;;;;5.40;2.60;;;25.90;61.40;;;;;;5067593;28;20173;-69
2023/06/15 08:05:48;;;;;;;3.10;2.15;;;25.80;61.90;;;;;;5068938;28;20525;-70
2023/06/15 08:08:13;;;;;;;5.30;2.35;;;26.40;60.20;;;;;;5069016;28;20191;-70
2023/06/15 08:10:39;;;;;;;4.20;2.60;;;26.90;59.10;;;;;;5068240;28;20222;-69
2023/06/15 08:13:06;;;;;;;3.85;2.65;;;26.90;59.40;;;;;;5068272;28;20173;-69
2023/06/15 08:15:32;;;;;;;5.47;2.63;;;26.00;61.10;;;;;;5068543;28;20196;-70
2023/06/15 08:17:58;;;;;;;4.40;2.83;;;26.20;59.70;;;;;;5068911;28;20247;-69
2023/06/15 08:20:23;;;;;;;7.68;2.40;;;26.60;59.10;;;;;;5068701;28;20183;-71
2023/06/15 08:22:49;;;;;;;4.45;2.65;;;26.70;58.00;;;;;;5068260;28;20203;-69
2023/06/15 08:25:15;;;;;;;3.78;2.08;;;25.80;61.40;;;;;;5068267;28;20189;-69
2023/06/15 15:09:09;;;;;;;4.83;1.93;;;24.10;49.30;;;;;;5041738;28;20481;-72
2023/06/15 15:11:34;;;;;;;5.57;1.53;;;24.10;49.50;;;;;;5050492;28;20449;-72
2023/06/15 15:14:00;;;;;;;3.40;1.60;;;24.40;49.30;;;;;;5050572;28;20205;-73
2023/06/15 15:16:26;;;;;;;3.20;1.97;;;24.60;49.20;;;;;;5050610;28;20209;-72
2023/06/15 15:18:52;;;;;;;2.67;1.27;;;24.60;48.50;;;;;;5050897;28;20261;-72
2023/06/15 15:21:17;;;;;;;3.07;2.00;;;24.40;48.60;;;;;;5050503;28;20184;-79
2023/06/15 15:23:43;;;;;;;3.57;1.80;;;24.50;48.80;;;;;;5050946;28;20176;-72
2023/06/15 15:26:09;;;;;;;5.10;2.20;;;24.30;49.50;;;;;;5050335;28;20189;-72
2023/06/15 15:28:34;;;;;;;3.33;1.33;;;24.20;51.00;;;;;;5050166;28;20204;-72
2023/06/15 15:31:00;;;;;;;4.03;1.80;;;24.50;50.30;;;;;;5054326;28;20203;-72
2023/06/15 15:33:26;;;;;;;3.27;1.83;;;24.50;49.70;;;;;;5059061;28;20181;-71
2023/06/15 15:35:51;;;;;;;4.20;2.40;;;24.50;48.40;;;;;;5050232;28;20228;-71
2023/06/15 15:38:17;;;;;;;2.33;1.47;;;24.60;49.80;;;;;;5050736;28;20181;-71
2023/06/15 15:40:43;;;;;;;2.37;1.20;;;24.70;48.50;;;;;;5049192;28;20573;-72
2023/06/15 15:43:08;;;;;;;3.87;1.90;;;24.80;48.40;;;;;;5050435;28;20185;-72
2023/06/15 15:45:37;;;;;;;2.87;1.37;;;25.00;48.80;;;;;;5050402;28;20189;-73
2023/06/15 15:48:03;;;;;;;2.73;1.23;;;25.00;48.80;;;;;;5050431;28;20226;-73
2023/06/15 15:50:30;;;;;;;2.20;1.27;;;24.90;48.40;;;;;;5050554;28;20546;-72
2023/06/15 15:52:56;;;;;;;3.37;1.60;;;24.90;49.60;;;;;;5050431;28;20185;-75
2023/06/15 15:55:21;;;;;;;2.67;1.47;;;24.90;47.70;;;;;;5049265;28;20458;-72
2023/06/15 15:57:47;;;;;;;2.53;1.50;;;24.80;47.70;;;;;;5050190;28;20563;-72
2023/06/15 16:00:13;;;;;;;2.10;1.10;;;24.80;48.50;;;;;;5050287;28;20177;-72
2023/06/15 16:02:38;;;;;;;2.87;1.53;;;24.90;47.30;;;;;;5049728;28;20184;-73
2023/06/15 16:05:07;;;;;;;2.70;1.63;;;24.80;47.10;;;;;;5049998;28;20185;-73
2023/06/15 16:07:40;;;;;;;4.70;1.57;;;24.80;47.20;;;;;;5050483;28;20528;-73
2023/06/15 16:10:07;;;;;;;2.60;1.60;;;24.70;47.70;;;;;;5049663;28;20443;-73
2023/06/15 16:12:32;;;;;;;3.57;2.40;;;24.80;49.30;;;;;;5049583;28;20420;-72
2023/06/15 16:14:58;;;;;;;2.10;1.00;;;24.70;47.10;;;;;;5049700;28;20447;-72
2023/06/15 16:17:24;;;;;;;2.40;1.10;;;24.60;47.90;;;;;;5050064;28;20534;-72
2023/06/15 16:19:49;;;;;;;2.70;1.50;;;24.50;47.40;;;;;;5050037;28;20234;-72
2023/06/15 16:22:15;;;;;;;3.60;2.20;;;24.70;47.00;;;;;;5049848;28;20177;-72
2023/06/15 16:24:40;;;;;;;2.30;1.20;;;24.80;46.40;;;;;;5049801;28;20268;-72
2023/06/15 16:27:07;;;;;;;3.00;1.60;;;24.90;46.90;;;;;;5050292;28;20213;-73
2023/06/15 16:29:35;;;;;;;2.40;1.20;;;24.90;48.00;;;;;;5049810;28;20215;-71
2023/06/15 16:32:02;;;;;;;2.80;1.03;;;25.00;46.80;;;;;;5049375;28;20424;-71
2023/06/15 16:34:28;;;;;;;1.97;1.10;;;25.00;46.90;;;;;;5050199;28;20458;-71
2023/06/15 16:36:53;;;;;;;3.13;1.40;;;25.00;48.30;;;;;;5050340;28;20419;-72
2023/06/15 16:39:55;;;;;;;2.97;1.93;;;24.80;46.50;;;;;;5049824;28;20209;-72
2023/06/15 16:42:29;;;;;;;4.10;1.70;;;24.60;47.00;;;;;;4968610;28;20207;-72
2023/06/15 16:44:57;;;;;;;3.87;1.60;;;24.60;48.00;;;;;;5021361;28;20506;-72
2023/06/15 16:47:23;;;;;;;2.50;1.50;;;24.30;48.10;;;;;;5030021;28;20946;-72
2023/06/15 16:49:50;;;;;;;3.00;1.23;;;24.30;48.10;;;;;;5029874;28;20417;-72
2023/06/15 16:52:17;;;;;;;2.80;1.33;;;24.30;48.50;;;;;;5030493;28;20177;-72
2023/06/15 16:54:44;;;;;;;2.40;1.50;;;24.40;47.10;;;;;;5031399;28;20511;-72
2023/06/15 16:57:12;;;;;;;3.00;1.43;;;24.40;47.80;;;;;;5029974;28;20429;-71
2023/06/15 16:59:39;;;;;;;2.50;1.50;;;24.20;47.90;;;;;;5033298;28;20495;-73
2023/06/15 17:02:06;;;;;;;9.23;1.50;;;24.10;48.70;;;;;;5032552;28;20423;-72
2023/06/15 17:04:33;;;;;;;3.50;1.63;;;24.10;48.50;;;;;;5032760;28;20427;-72
2023/06/15 17:06:58;;;;;;;5.17;1.50;;;24.20;47.10;;;;;;5032098;28;20420;-72
2023/06/15 17:09:25;;;;;;;2.80;1.40;;;24.10;47.70;;;;;;5032355;28;20916;-72
2023/06/15 17:11:52;;;;;;;3.60;1.77;;;24.20;48.00;;;;;;5032883;28;20182;-72
2023/06/15 17:14:18;;;;;;;3.57;2.00;;;24.00;49.00;;;;;;5032253;28;20495;-72
2023/06/15 17:16:45;;;;;;;3.60;1.70;;;24.00;48.10;;;;;;5032662;28;20511;-72
2023/06/15 17:19:11;;;;;;;3.33;1.80;;;23.80;49.00;;;;;;5032696;28;20216;-72
2023/06/15 17:21:37;;;;;;;4.90;1.90;;;23.80;48.10;;;;;;5032773;28;20425;-72
2023/06/15 17:24:04;;;;;;;2.90;1.70;;;23.80;48.90;;;;;;5032465;28;20458;-72
2023/06/15 17:26:31;;;;;;;5.17;1.57;;;23.70;49.30;;;;;;5033445;28;20197;-72
2023/06/15 17:28:57;;;;;;;3.30;1.47;;;23.70;49.30;;;;;;5032925;28;20485;-73
2023/06/15 17:31:24;;;;;;;6.20;2.47;;;23.70;48.70;;;;;;5032881;28;20797;-72
2023/06/15 17:33:50;;;;;;;3.23;1.60;;;23.70;49.00;;;;;;5046004;28;20854;-73
2023/06/15 17:36:15;;;;;;;2.90;1.70;;;23.70;48.40;;;;;;5032804;28;20555;-73
2023/06/15 17:38:41;;;;;;;2.20;1.50;;;23.60;49.00;;;;;;5032518;28;20340;-73
2023/06/15 17:41:10;;;;;;;17.43;1.50;;;23.60;48.90;;;;;;5031841;28;20181;-73
2023/06/15 17:43:39;;;;;;;3.13;1.63;;;23.50;49.80;;;;;;5032601;28;20174;-73
2023/06/15 17:46:06;;;;;;;2.37;1.17;;;23.50;49.80;;;;;;5032640;28;20421;-73
2023/06/15 17:48:32;;;;;;;4.73;1.57;;;23.40;50.90;;;;;;5032406;28;20525;-73
2023/06/15 17:50:58;;;;;;;4.10;1.40;;;23.30;50.70;;;;;;5032002;28;20861;-73
2023/06/15 17:53:27;;;;;;;2.10;1.10;;;23.10;51.10;;;;;;5032590;28;20193;-73
2023/06/15 17:55:59;;;;;;;3.23;1.73;;;23.10;50.00;;;;;;5030782;28;20464;-73
2023/06/15 17:58:25;;;;;;;2.40;1.27;;;23.10;51.00;;;;;;5032263;28;20427;-73
2023/06/15 18:00:52;;;;;;;4.17;1.90;;;23.00;51.30;;;;;;5031868;28;20424;-73
2023/06/15 18:03:18;;;;;;;3.10;1.30;;;23.00;51.80;;;;;;5031824;28;20424;-72
2023/06/15 18:05:43;;;;;;;4.50;1.57;;;22.90;51.80;;;;;;5031752;28;20452;-74
2023/06/15 18:08:09;;;;;;;2.80;1.47;;;22.80;51.50;;;;;;5032193;28;20905;-75
2023/06/15 18:10:35;;;;;;;5.73;2.50;;;22.80;51.40;;;;;;5031676;28;20263;-74
2023/06/15 18:13:01;;;;;;;4.73;1.07;;;22.80;51.20;;;;;;5032458;28;20182;-74
2023/06/15 18:15:27;;;;;;;3.30;1.80;;;22.70;51.10;;;;;;5032245;28;20213;-75
2023/06/15 18:17:52;;;;;;;2.90;1.53;;;22.70;50.60;;;;;;5032296;28;20511;-75
2023/06/15 18:20:18;;;;;;;3.47;1.53;;;22.60;51.20;;;;;;5031835;28;20821;-74
2023/06/15 18:22:44;;;;;;;2.67;1.33;;;22.50;50.30;;;;;;5029759;28;20190;-75
2023/06/15 18:25:10;;;;;;;3.33;2.10;;;22.50;51.30;;;;;;5032084;28;20220;-75
2023/06/15 18:27:38;;;;;;;4.07;1.53;;;22.40;50.90;;;;;;5031948;28;20178;-75
2023/06/15 18:30:06;;;;;;;3.83;1.80;;;22.30;52.10;;;;;;5031700;28;20431;-74
2023/06/15 18:32:34;;;;;;;4.10;1.70;;;22.30;51.50;;;;;;5031334;28;20443;-74
2023/06/15 18:35:00;;;;;;;4.50;1.40;;;22.20;52.70;;;;;;5031996;28;20458;-75
2023/06/15 18:37:26;;;;;;;4.40;1.60;;;22.20;53.40;;;;;;5031419;28;20425;-74
2023/06/15 18:39:52;;;;;;;3.80;1.50;;;21.90;52.90;;;;;;5031317;28;20500;-74
2023/06/15 18:42:18;;;;;;;3.47;1.67;;;21.80;52.80;;;;;;5044711;28;20174;-74
2023/06/15 18:44:43;;;;;;;5.70;1.90;;;21.80;52.90;;;;;;5031540;28;20424;-74
2023/06/15 18:47:15;;;;;;;6.27;2.13;;;21.70;53.70;;;;;;5031357;28;20202;-74
2023/06/15 18:49:41;;;;;;;3.50;1.73;;;21.60;54.10;;;;;;5043047;28;20170;-75
2023/06/15 18:52:06;;;;;;;7.30;1.67;;;21.50;54.90;;;;;;5033235;28;20409;-75
2023/06/15 18:54:32;;;;;;;2.90;1.67;;;21.40;54.50;;;;;;5030061;28;20209;-74
2023/06/15 18:56:58;;;;;;;4.17;1.73;;;21.40;54.80;;;;;;5031533;28;20190;-75
2023/06/15 18:59:23;;;;;;;2.13;1.27;;;21.30;54.70;;;;;;5031639;28;20670;-74
2023/06/15 19:01:51;;;;;;;3.00;1.63;;;21.20;54.70;;;;;;5030930;28;20182;-74
2023/06/15 19:04:16;;;;;;;4.23;2.00;;;21.10;54.60;;;;;;5031555;28;20178;-74
2023/06/15 19:06:42;;;;;;;4.07;2.00;;;21.00;55.10;;;;;;5030169;28;20432;-74
2023/06/15 19:09:09;;;;;;;2.47;1.70;;;20.90;55.90;;;;;;5030914;28;20590;-75
2023/06/15 19:11:35;;;;;;;4.30;1.60;;;20.80;57.10;;;;;;5030916;28;20417;-74
2023/06/15 19:14:02;;;;;;;3.03;1.60;;;20.60;56.40;;;;;;5030924;28;20443;-75
2023/06/15 19:16:28;;;;;;;10.10;2.07;;;20.50;56.10;;;;;;5030719;28;20802;-74
2023/06/15 19:18:54;;;;;;;4.23;1.90;;;20.50;56.90;;;;;;5031023;28;20448;-75
2023/06/15 19:21:19;;;;;;;5.63;2.10;;;20.40;56.80;;;;;;5030630;28;20664;-74
2023/06/15 19:23:45;;;;;;;5.63;1.43;;;20.30;57.40;;;;;;5031405;28;20527;-74
2023/06/15 19:26:15;;;;;;;2.97;1.30;;;20.10;57.60;;;;;;5030859;28;20232;-74